Nrc Columbia — WDA8288 — position and weather

sailwx.info

Track history (hours):
 
Tides and Currents Weather Stations Pressure Air Temp Water Temp Dewpoint Dewpoint Depression Visibility Wind Speed Wind Dir Waves Ship Positions

Nrc Columbia

More information available from US FCC via Universal Licensing System and Coast Guard Vessel Documentation Center.

Last reported at 2014-Jul-17 15:33 UTC. Time now 2014-Jul-31 21:48 UTC.
Position N 47°40' W 122°23'.
Warning: this ship's position is 14 days out of date.

Length 35 m.

Type: Pollution control. MMSI: 366710170.

Date/timePositionNaut miles runAvg speedWind from/ knotsBaromVisibWave heightAir tempDewpointWater temp
2014-Jul-17 15:33N 47°40' W 122°23'0 0.1
2014-Jul-17 15:29N 47°40' W 122°23'0 0.0
2014-Jul-17 14:33N 47°40' W 122°23'0 0.1
2014-Jul-17 14:29N 47°40' W 122°23'0 0.0
2014-Jul-17 13:33N 47°40' W 122°23'0 0.0
2014-Jul-17 13:29N 47°40' W 122°23'0 0.0
2014-Jul-17 12:33N 47°40' W 122°23'0 0.0
2014-Jul-17 12:29N 47°40' W 122°23'0 0.0
2014-Jul-17 11:33N 47°40' W 122°23'0 0.0
2014-Jul-17 11:29N 47°40' W 122°23'0 0.0
2014-Jul-17 10:33N 47°40' W 122°23'0 0.1
2014-Jul-17 10:29N 47°40' W 122°23'0 0.0
2014-Jul-17 09:33N 47°40' W 122°23'0 0.1
2014-Jul-17 09:29N 47°40' W 122°23'0 0.0
2014-Jul-17 08:33N 47°40' W 122°23'0 0.1
2014-Jul-17 08:29N 47°40' W 122°23'0 0.0
2014-Jul-17 07:33N 47°40' W 122°23'0 0.0
2014-Jul-17 07:24N 47°40' W 122°23'0 0.0
2014-Jul-17 06:33N 47°40' W 122°23'0 0.0
2014-Jul-17 06:29N 47°40' W 122°23'0 0.0
2014-Jul-17 05:54N 47°40' W 122°23'0 0.0
2014-Jul-17 05:33N 47°40' W 122°23'0 0.0
2014-Jul-17 04:34N 47°40' W 122°23'0 0.0
2014-Jul-17 04:33N 47°40' W 122°23'0 0.0
2014-Jul-17 03:34N 47°40' W 122°23'0 0.8
2014-Jul-17 03:33N 47°40' W 122°23'0 0.0
2014-Jul-17 02:33N 47°40' W 122°23'0 0.0
2014-Jul-17 02:33N 47°40' W 122°23'1 0.8
2014-Jul-17 01:33N 47°40' W 122°24'0 3.9
2014-Jul-17 01:33N 47°40' W 122°24'8 7.7
2014-Jul-17 00:33N 47°48' W 122°28'0 9.8
2014-Jul-17 00:33N 47°48' W 122°28'9 9.0
2014-Jul-16 23:33N 47°56' W 122°32'9 9.1
2014-Jul-16 22:33N 48°04' W 122°39'3 8.7
2014-Jul-16 22:13N 48°07' W 122°40'6 9.2
2014-Jul-16 21:33N 48°10' W 122°48'0 0.0
2014-Jul-16 21:33N 48°10' W 122°48'8 7.9
2014-Jul-16 20:33N 48°18' W 122°48'1110.6
2014-Jul-16 19:33N 48°29' W 122°45'1110.8
2014-Jul-16 18:33N 48°39' W 122°43'8 8.4
2014-Jul-16 17:33N 48°48' W 122°45'2 0.4
2014-Jul-16 11:29N 48°50' W 122°43'0 0.0
2014-Jul-16 10:32N 48°50' W 122°43'0 0.0
2014-Jul-16 09:17N 48°50' W 122°43'0 0.0
2014-Jul-16 08:29N 48°50' W 122°43'0 0.0
2014-Jul-16 06:29N 48°50' W 122°43'0 0.0
2014-Jul-16 05:29N 48°50' W 122°43'0 0.0
2014-Jul-16 04:32N 48°50' W 122°43'0 0.0
2014-Jul-16 03:08N 48°50' W 122°43'0 0.2
2014-Jul-16 02:24N 48°50' W 122°43'0 0.2
2014-Jul-16 01:31N 48°50' W 122°43'0 0.0
2014-Jul-15 23:31N 48°50' W 122°43'0 0.0
2014-Jul-15 16:10N 48°50' W 122°43'0 0.0
2014-Jul-15 15:31N 48°50' W 122°43'0 0.0
2014-Jul-15 14:25N 48°50' W 122°43'0 0.0
2014-Jul-15 13:31N 48°50' W 122°43'0 0.0
2014-Jul-15 12:25N 48°50' W 122°43'0 0.0
2014-Jul-15 11:31N 48°50' W 122°43'0 0.0
2014-Jul-15 10:31N 48°50' W 122°43'0 0.0
2014-Jul-15 09:31N 48°50' W 122°43'0 0.0
2014-Jul-15 08:19N 48°50' W 122°43'0 0.0
2014-Jul-15 07:26N 48°50' W 122°43'0 0.0
2014-Jul-15 06:26N 48°50' W 122°43'0 0.0
2014-Jul-15 05:31N 48°50' W 122°43'0 0.0
2014-Jul-15 04:31N 48°50' W 122°43'0 0.0
2014-Jul-15 03:17N 48°50' W 122°43'0 0.0
2014-Jul-14 15:31N 48°50' W 122°43'0 0.0
2014-Jul-14 14:25N 48°50' W 122°43'0 0.0
2014-Jul-14 13:31N 48°50' W 122°43'0 0.0
2014-Jul-14 11:10N 48°50' W 122°43'0 0.0
2014-Jul-14 10:28N 48°50' W 122°43'0 0.0
2014-Jul-14 09:19N 48°50' W 122°43'0 0.0
2014-Jul-14 08:31N 48°50' W 122°43'0 0.0
2014-Jul-14 07:31N 48°50' W 122°43'0 0.0
2014-Jul-14 06:25N 48°50' W 122°43'0 0.0
2014-Jul-14 05:16N 48°50' W 122°43'0 0.0
2014-Jul-14 04:13N 48°50' W 122°43'0 0.0
2014-Jul-14 03:31N 48°50' W 122°43'0 0.0
2014-Jul-14 02:25N 48°50' W 122°43'0 0.0
2014-Jul-14 01:19N 48°50' W 122°43'0 0.0
2014-Jul-14 00:25N 48°50' W 122°43'0 0.0
2014-Jul-13 21:25N 48°50' W 122°43'0 0.0
2014-Jul-13 19:31N 48°50' W 122°43'0 0.0
2014-Jul-13 12:19N 48°50' W 122°43'0 0.0
2014-Jul-13 11:28N 48°50' W 122°43'0 0.0
2014-Jul-13 10:07N 48°50' W 122°43'0 0.0
2014-Jul-13 08:13N 48°50' W 122°43'0 0.0
2014-Jul-13 07:04N 48°50' W 122°43'0 0.0
2014-Jul-13 06:19N 48°50' W 122°43'0 0.0
2014-Jul-13 05:25N 48°50' W 122°43'0 0.0
2014-Jul-13 04:28N 48°50' W 122°43'0 0.0
2014-Jul-13 02:19N 48°50' W 122°43'0 0.0
2014-Jul-12 22:13N 48°50' W 122°43'0 0.0
2014-Jul-12 21:07N 48°50' W 122°43'0 0.0
2014-Jul-12 17:31N 48°50' W 122°43'0 0.0
2014-Jul-12 16:31N 48°50' W 122°43'0 0.0
2014-Jul-12 15:31N 48°50' W 122°43'0 0.0
2014-Jul-12 14:31N 48°50' W 122°43'0 0.0
2014-Jul-12 13:22N 48°50' W 122°43'0 0.0
2014-Jul-12 10:13N 48°50' W 122°43'0 0.0
2014-Jul-12 09:31N 48°50' W 122°43'0 0.0
2014-Jul-12 08:28N 48°50' W 122°43'0 0.0
2014-Jul-12 07:16N 48°50' W 122°43'0 0.0
2014-Jul-12 06:22N 48°50' W 122°43'0 0.0
2014-Jul-12 05:31N 48°50' W 122°43'0 0.0
2014-Jul-12 04:19N 48°50' W 122°43'0 0.0
2014-Jul-12 03:31N 48°50' W 122°43'0 0.0
2014-Jul-12 02:31N 48°50' W 122°43'0 0.0
2014-Jul-12 01:31N 48°50' W 122°43'0 0.0
2014-Jul-12 00:25N 48°50' W 122°43'0 0.0
2014-Jul-11 23:31N 48°50' W 122°43'0 0.0
2014-Jul-11 22:25N 48°50' W 122°43'0 0.0
2014-Jul-11 20:07N 48°50' W 122°43'0 0.0
2014-Jul-11 19:31N 48°50' W 122°43'0 0.0
2014-Jul-11 18:19N 48°50' W 122°43'0 0.0
2014-Jul-11 17:31N 48°50' W 122°43'0 0.0
2014-Jul-11 16:31N 48°50' W 122°43'0 0.0
2014-Jul-11 11:31N 48°50' W 122°43'0 0.0
2014-Jul-11 10:25N 48°50' W 122°43'0 0.0
2014-Jul-11 09:28N 48°50' W 122°43'0 0.0
2014-Jul-11 06:19N 48°50' W 122°43'0 0.0
2014-Jul-11 05:13N 48°50' W 122°43'0 0.0
2014-Jul-11 04:31N 48°50' W 122°43'0 0.0
2014-Jul-11 03:31N 48°50' W 122°43'0 0.0
2014-Jul-11 02:19N 48°50' W 122°43'0 0.0
2014-Jul-11 01:22N 48°50' W 122°43'0 0.0
2014-Jul-11 00:10N 48°50' W 122°43'0 0.0
2014-Jul-10 07:22N 48°50' W 122°43'0 0.0
2014-Jul-10 06:04N 48°50' W 122°43'0 0.0
2014-Jul-10 05:25N 48°50' W 122°43'0 0.0
2014-Jul-10 04:25N 48°50' W 122°43'0 0.0
2014-Jul-10 03:13N 48°50' W 122°43'0 0.0
2014-Jul-10 02:25N 48°50' W 122°43'0 0.0
2014-Jul-09 21:19N 48°50' W 122°43'0 0.0
2014-Jul-09 13:28N 48°50' W 122°43'0 0.0
2014-Jul-09 10:22N 48°50' W 122°43'0 0.0
2014-Jul-09 08:07N 48°50' W 122°43'0 0.0
2014-Jul-09 07:04N 48°50' W 122°43'0 0.0
2014-Jul-09 06:31N 48°50' W 122°43'0 0.0
2014-Jul-09 05:10N 48°50' W 122°43'0 0.0
2014-Jul-09 04:28N 48°50' W 122°43'0 0.0
2014-Jul-09 03:22N 48°50' W 122°43'0 0.0
2014-Jul-09 02:13N 48°50' W 122°43'0 0.0
2014-Jul-09 01:28N 48°50' W 122°43'0 0.0
2014-Jul-09 00:13N 48°50' W 122°43'0 0.0
2014-Jul-08 23:19N 48°50' W 122°43'0 0.0
2014-Jul-08 19:31N 48°50' W 122°43'0 0.0
2014-Jul-08 05:19N 48°50' W 122°43'0 0.0
2014-Jul-08 04:31N 48°50' W 122°43'  
Track history (hours):
 
Tides and Currents Weather Stations Pressure Air Temp Water Temp Dewpoint Dewpoint Depression Visibility Wind Speed Wind Dir Waves Ship Positions

Nrc Columbia

More information available from US FCC via Universal Licensing System and Coast Guard Vessel Documentation Center.

Last reported at 2014-Jul-17 15:33 UTC. Time now 2014-Jul-31 21:48 UTC.
Position N 47°40' W 122°23'.
Warning: this ship's position is 14 days out of date.

Length 35 m.

Type: Pollution control. MMSI: 366710170.

Date/timePositionNaut miles runAvg speedWind from/ knotsBaromVisibWave heightAir tempDewpointWater temp
2014-Jul-17 15:33N 47°40' W 122°23'0 0.1
2014-Jul-17 15:29N 47°40' W 122°23'0 0.0
2014-Jul-17 14:33N 47°40' W 122°23'0 0.1
2014-Jul-17 14:29N 47°40' W 122°23'0 0.0
2014-Jul-17 13:33N 47°40' W 122°23'0 0.0
2014-Jul-17 13:29N 47°40' W 122°23'0 0.0
2014-Jul-17 12:33N 47°40' W 122°23'0 0.0
2014-Jul-17 12:29N 47°40' W 122°23'0 0.0
2014-Jul-17 11:33N 47°40' W 122°23'0 0.0
2014-Jul-17 11:29N 47°40' W 122°23'0 0.0
2014-Jul-17 10:33N 47°40' W 122°23'0 0.1
2014-Jul-17 10:29N 47°40' W 122°23'0 0.0
2014-Jul-17 09:33N 47°40' W 122°23'0 0.1
2014-Jul-17 09:29N 47°40' W 122°23'0 0.0
2014-Jul-17 08:33N 47°40' W 122°23'0 0.1
2014-Jul-17 08:29N 47°40' W 122°23'0 0.0
2014-Jul-17 07:33N 47°40' W 122°23'0 0.0
2014-Jul-17 07:24N 47°40' W 122°23'0 0.0
2014-Jul-17 06:33N 47°40' W 122°23'0 0.0
2014-Jul-17 06:29N 47°40' W 122°23'0 0.0
2014-Jul-17 05:54N 47°40' W 122°23'0 0.0
2014-Jul-17 05:33N 47°40' W 122°23'0 0.0
2014-Jul-17 04:34N 47°40' W 122°23'0 0.0
2014-Jul-17 04:33N 47°40' W 122°23'0 0.0
2014-Jul-17 03:34N 47°40' W 122°23'0 0.8
2014-Jul-17 03:33N 47°40' W 122°23'0 0.0
2014-Jul-17 02:33N 47°40' W 122°23'0 0.0
2014-Jul-17 02:33N 47°40' W 122°23'1 0.8
2014-Jul-17 01:33N 47°40' W 122°24'0 3.9
2014-Jul-17 01:33N 47°40' W 122°24'8 7.7
2014-Jul-17 00:33N 47°48' W 122°28'0 9.8
2014-Jul-17 00:33N 47°48' W 122°28'9 9.0
2014-Jul-16 23:33N 47°56' W 122°32'9 9.1
2014-Jul-16 22:33N 48°04' W 122°39'3 8.7
2014-Jul-16 22:13N 48°07' W 122°40'6 9.2
2014-Jul-16 21:33N 48°10' W 122°48'0 0.0
2014-Jul-16 21:33N 48°10' W 122°48'8 7.9
2014-Jul-16 20:33N 48°18' W 122°48'1110.6
2014-Jul-16 19:33N 48°29' W 122°45'1110.8
2014-Jul-16 18:33N 48°39' W 122°43'8 8.4
2014-Jul-16 17:33N 48°48' W 122°45'2 0.4
2014-Jul-16 11:29N 48°50' W 122°43'0 0.0
2014-Jul-16 10:32N 48°50' W 122°43'0 0.0
2014-Jul-16 09:17N 48°50' W 122°43'0 0.0
2014-Jul-16 08:29N 48°50' W 122°43'0 0.0
2014-Jul-16 06:29N 48°50' W 122°43'0 0.0
2014-Jul-16 05:29N 48°50' W 122°43'0 0.0
2014-Jul-16 04:32N 48°50' W 122°43'0 0.0
2014-Jul-16 03:08N 48°50' W 122°43'0 0.2
2014-Jul-16 02:24N 48°50' W 122°43'0 0.2
2014-Jul-16 01:31N 48°50' W 122°43'0 0.0
2014-Jul-15 23:31N 48°50' W 122°43'0 0.0
2014-Jul-15 16:10N 48°50' W 122°43'0 0.0
2014-Jul-15 15:31N 48°50' W 122°43'0 0.0
2014-Jul-15 14:25N 48°50' W 122°43'0 0.0
2014-Jul-15 13:31N 48°50' W 122°43'0 0.0
2014-Jul-15 12:25N 48°50' W 122°43'0 0.0
2014-Jul-15 11:31N 48°50' W 122°43'0 0.0
2014-Jul-15 10:31N 48°50' W 122°43'0 0.0
2014-Jul-15 09:31N 48°50' W 122°43'0 0.0
2014-Jul-15 08:19N 48°50' W 122°43'0 0.0
2014-Jul-15 07:26N 48°50' W 122°43'0 0.0
2014-Jul-15 06:26N 48°50' W 122°43'0 0.0
2014-Jul-15 05:31N 48°50' W 122°43'0 0.0
2014-Jul-15 04:31N 48°50' W 122°43'0 0.0
2014-Jul-15 03:17N 48°50' W 122°43'0 0.0
2014-Jul-14 15:31N 48°50' W 122°43'0 0.0
2014-Jul-14 14:25N 48°50' W 122°43'0 0.0
2014-Jul-14 13:31N 48°50' W 122°43'0 0.0
2014-Jul-14 11:10N 48°50' W 122°43'0 0.0
2014-Jul-14 10:28N 48°50' W 122°43'0 0.0
2014-Jul-14 09:19N 48°50' W 122°43'0 0.0
2014-Jul-14 08:31N 48°50' W 122°43'0 0.0
2014-Jul-14 07:31N 48°50' W 122°43'0 0.0
2014-Jul-14 06:25N 48°50' W 122°43'0 0.0
2014-Jul-14 05:16N 48°50' W 122°43'0 0.0
2014-Jul-14 04:13N 48°50' W 122°43'0 0.0
2014-Jul-14 03:31N 48°50' W 122°43'0 0.0
2014-Jul-14 02:25N 48°50' W 122°43'0 0.0
2014-Jul-14 01:19N 48°50' W 122°43'0 0.0
2014-Jul-14 00:25N 48°50' W 122°43'0 0.0
2014-Jul-13 21:25N 48°50' W 122°43'0 0.0
2014-Jul-13 19:31N 48°50' W 122°43'0 0.0
2014-Jul-13 12:19N 48°50' W 122°43'0 0.0
2014-Jul-13 11:28N 48°50' W 122°43'0 0.0
2014-Jul-13 10:07N 48°50' W 122°43'0 0.0
2014-Jul-13 08:13N 48°50' W 122°43'0 0.0
2014-Jul-13 07:04N 48°50' W 122°43'0 0.0
2014-Jul-13 06:19N 48°50' W 122°43'0 0.0
2014-Jul-13 05:25N 48°50' W 122°43'0 0.0
2014-Jul-13 04:28N 48°50' W 122°43'0 0.0
2014-Jul-13 02:19N 48°50' W 122°43'0 0.0
2014-Jul-12 22:13N 48°50' W 122°43'0 0.0
2014-Jul-12 21:07N 48°50' W 122°43'0 0.0
2014-Jul-12 17:31N 48°50' W 122°43'0 0.0
2014-Jul-12 16:31N 48°50' W 122°43'0 0.0
2014-Jul-12 15:31N 48°50' W 122°43'0 0.0
2014-Jul-12 14:31N 48°50' W 122°43'0 0.0
2014-Jul-12 13:22N 48°50' W 122°43'0 0.0
2014-Jul-12 10:13N 48°50' W 122°43'0 0.0
2014-Jul-12 09:31N 48°50' W 122°43'0 0.0
2014-Jul-12 08:28N 48°50' W 122°43'0 0.0
2014-Jul-12 07:16N 48°50' W 122°43'0 0.0
2014-Jul-12 06:22N 48°50' W 122°43'0 0.0
2014-Jul-12 05:31N 48°50' W 122°43'0 0.0
2014-Jul-12 04:19N 48°50' W 122°43'0 0.0
2014-Jul-12 03:31N 48°50' W 122°43'0 0.0
2014-Jul-12 02:31N 48°50' W 122°43'0 0.0
2014-Jul-12 01:31N 48°50' W 122°43'0 0.0
2014-Jul-12 00:25N 48°50' W 122°43'0 0.0
2014-Jul-11 23:31N 48°50' W 122°43'0 0.0
2014-Jul-11 22:25N 48°50' W 122°43'0 0.0
2014-Jul-11 20:07N 48°50' W 122°43'0 0.0
2014-Jul-11 19:31N 48°50' W 122°43'0 0.0
2014-Jul-11 18:19N 48°50' W 122°43'0 0.0
2014-Jul-11 17:31N 48°50' W 122°43'0 0.0
2014-Jul-11 16:31N 48°50' W 122°43'0 0.0
2014-Jul-11 11:31N 48°50' W 122°43'0 0.0
2014-Jul-11 10:25N 48°50' W 122°43'0 0.0
2014-Jul-11 09:28N 48°50' W 122°43'0 0.0
2014-Jul-11 06:19N 48°50' W 122°43'0 0.0
2014-Jul-11 05:13N 48°50' W 122°43'0 0.0
2014-Jul-11 04:31N 48°50' W 122°43'0 0.0
2014-Jul-11 03:31N 48°50' W 122°43'0 0.0
2014-Jul-11 02:19N 48°50' W 122°43'0 0.0
2014-Jul-11 01:22N 48°50' W 122°43'0 0.0
2014-Jul-11 00:10N 48°50' W 122°43'0 0.0
2014-Jul-10 07:22N 48°50' W 122°43'0 0.0
2014-Jul-10 06:04N 48°50' W 122°43'0 0.0
2014-Jul-10 05:25N 48°50' W 122°43'0 0.0
2014-Jul-10 04:25N 48°50' W 122°43'0 0.0
2014-Jul-10 03:13N 48°50' W 122°43'0 0.0
2014-Jul-10 02:25N 48°50' W 122°43'0 0.0
2014-Jul-09 21:19N 48°50' W 122°43'0 0.0
2014-Jul-09 13:28N 48°50' W 122°43'0 0.0
2014-Jul-09 10:22N 48°50' W 122°43'0 0.0
2014-Jul-09 08:07N 48°50' W 122°43'0 0.0
2014-Jul-09 07:04N 48°50' W 122°43'0 0.0
2014-Jul-09 06:31N 48°50' W 122°43'0 0.0
2014-Jul-09 05:10N 48°50' W 122°43'0 0.0
2014-Jul-09 04:28N 48°50' W 122°43'0 0.0
2014-Jul-09 03:22N 48°50' W 122°43'0 0.0
2014-Jul-09 02:13N 48°50' W 122°43'0 0.0
2014-Jul-09 01:28N 48°50' W 122°43'0 0.0
2014-Jul-09 00:13N 48°50' W 122°43'0 0.0
2014-Jul-08 23:19N 48°50' W 122°43'0 0.0
2014-Jul-08 19:31N 48°50' W 122°43'0 0.0
2014-Jul-08 05:19N 48°50' W 122°43'0 0.0
2014-Jul-08 04:31N 48°50' W 122°43'  

Dump ship's entire track history